createdAt,value
2022-10-19T00:00:33.604Z,102172.22
2022-10-19T00:03:01.219Z,102169.59
2022-10-19T00:05:29.030Z,102182.63
2022-10-19T00:07:56.549Z,102178.22
2022-10-19T00:10:25.336Z,102175.59
2022-10-19T00:12:52.924Z,102180.75
2022-10-19T00:15:21.177Z,102179.94
2022-10-19T00:17:48.731Z,102178.97
2022-10-19T00:20:16.350Z,102171.97
2022-10-19T00:22:43.814Z,102173.66
2022-10-19T00:25:11.316Z,102177.22
2022-10-19T00:27:40.175Z,102182.38
2022-10-19T00:30:08.902Z,102177.16
2022-10-19T00:32:36.489Z,102184.06
2022-10-19T00:35:04.380Z,102180.59
2022-10-19T00:37:31.920Z,102181.44
2022-10-19T00:39:59.441Z,102178.81
2022-10-19T00:42:27.119Z,102176.19
2022-10-19T00:45:17.127Z,102182.31
2022-10-19T00:47:45.882Z,102177.91
2022-10-19T00:50:17.315Z,102173.56
2022-10-19T00:52:44.913Z,102178.72
2022-10-19T00:55:13.043Z,102184.81
2022-10-19T00:57:40.884Z,102176.94
2022-10-19T01:00:09.951Z,102185.69
2022-10-19T01:02:39.030Z,102183.91
2022-10-19T01:05:08.319Z,102189.13
2022-10-19T01:07:36.063Z,102181.28
2022-10-19T01:10:04.615Z,102179.50
2022-10-19T01:12:52.621Z,102177.81
2022-10-19T01:15:31.071Z,102175.19
2022-10-19T01:18:06.895Z,102179.50
2022-10-19T01:20:47.706Z,102166.47
2022-10-19T01:23:39.753Z,102169.09
2022-10-19T01:26:23.775Z,102162.09
2022-10-19T01:29:06.081Z,102162.94
2022-10-19T01:31:45.720Z,102150.75
2022-10-19T01:34:20.465Z,102155.91
2022-10-19T01:37:01.819Z,102149.81
2022-10-19T01:39:40.560Z,102147.13
2022-10-19T01:42:13.802Z,102155.81
2022-10-19T01:44:48.735Z,102147.03
2022-10-19T01:47:24.005Z,102147.88
2022-10-19T01:49:56.578Z,102153.13
2022-10-19T01:52:26.674Z,102155.66
2022-10-19T01:54:57.298Z,102156.41
2022-10-19T01:57:29.203Z,102148.53
2022-10-19T01:59:58.809Z,102139.75
2022-10-19T02:02:29.131Z,102154.66
2022-10-19T02:04:58.669Z,102145.84
2022-10-19T02:07:26.791Z,102145.84
2022-10-19T02:09:54.387Z,102148.47
2022-10-19T02:12:22.766Z,102149.41
2022-10-19T02:14:57.530Z,102148.53
2022-10-19T02:17:29.715Z,102143.41
2022-10-19T02:19:58.776Z,102142.53
2022-10-19T02:22:26.398Z,102146.03
2022-10-19T02:24:53.887Z,102136.38
2022-10-19T02:27:21.778Z,102137.31
2022-10-19T02:29:49.377Z,102147.78
2022-10-19T02:32:17.039Z,102135.44
2022-10-19T02:34:45.977Z,102149.31
2022-10-19T02:37:13.672Z,102141.47
2022-10-19T02:39:41.471Z,102143.13
2022-10-19T02:42:13.072Z,102155.31
2022-10-19T02:44:45.022Z,102156.16
2022-10-19T02:47:19.015Z,102155.31
2022-10-19T02:49:49.650Z,102139.69
2022-10-19T02:52:17.275Z,102146.72
2022-10-19T02:54:45.735Z,102135.53
2022-10-19T02:57:17.844Z,102141.72
2022-10-19T02:59:45.542Z,102141.78
2022-10-19T03:02:13.201Z,102136.63
2022-10-19T03:04:41.631Z,102142.72
2022-10-19T03:07:11.461Z,102144.41
2022-10-19T03:09:38.968Z,102139.09
2022-10-19T03:12:06.820Z,102137.38
2022-10-19T03:14:35.039Z,102136.53
2022-10-19T03:17:02.674Z,102141.78
2022-10-19T03:19:30.270Z,102146.19
2022-10-19T03:21:57.962Z,102140.94
2022-10-19T03:24:27.126Z,102146.19
2022-10-19T03:26:54.659Z,102146.13
2022-10-19T03:29:22.152Z,102160.06
2022-10-19T03:31:50.033Z,102157.53
2022-10-19T03:34:17.620Z,102154.81
2022-10-19T03:36:45.175Z,102153.97
2022-10-19T03:39:15.581Z,102155.72
2022-10-19T03:41:44.793Z,102159.31
2022-10-19T03:44:12.933Z,102166.22
2022-10-19T03:46:41.119Z,102165.38
2022-10-19T03:49:09.513Z,102166.38
2022-10-19T03:51:37.281Z,102177.06
2022-10-19T03:54:07.371Z,102171.13
2022-10-19T03:56:36.300Z,102176.34
2022-10-19T03:59:07.299Z,102175.59
2022-10-19T04:01:37.476Z,102172.97
2022-10-19T04:04:07.286Z,102174.69
2022-10-19T04:06:37.063Z,102173.81
2022-10-19T04:09:05.927Z,102188.63
2022-10-19T04:11:35.046Z,102184.31
2022-10-19T04:14:03.684Z,102189.53
2022-10-19T04:16:33.264Z,102178.13
2022-10-19T04:19:01.526Z,102182.53
2022-10-19T04:21:30.692Z,102180.69
2022-10-19T04:24:01.187Z,102183.31
2022-10-19T04:26:29.548Z,102185.84
2022-10-19T04:28:58.556Z,102187.53
2022-10-19T04:31:26.763Z,102185.75
2022-10-19T04:33:56.180Z,102184.94
2022-10-19T04:36:24.129Z,102193.63
2022-10-19T04:38:51.774Z,102189.22
2022-10-19T04:41:21.972Z,102197.91
2022-10-19T04:43:49.816Z,102185.75
2022-10-19T04:46:19.390Z,102185.75
2022-10-19T04:48:48.401Z,102195.41
2022-10-19T04:51:18.236Z,102191.09
2022-10-19T04:53:45.922Z,102195.56
2022-10-19T04:56:16.194Z,102202.47
2022-10-19T04:58:44.455Z,102207.81
2022-10-19T05:01:14.854Z,102201.66
2022-10-19T05:03:42.738Z,102206.91
2022-10-19T05:06:11.682Z,102210.34
2022-10-19T05:08:41.605Z,102210.28
2022-10-19T05:11:11.324Z,102214.59
2022-10-19T05:13:39.430Z,102212.81
2022-10-19T05:16:11.106Z,102225.09
2022-10-19T05:18:38.681Z,102218.22
2022-10-19T05:21:08.492Z,102221.63
2022-10-19T05:23:36.215Z,102224.25
2022-10-19T05:26:07.293Z,102232.09
2022-10-19T05:28:35.904Z,102232.94
2022-10-19T05:31:09.458Z,102228.53
2022-10-19T05:33:37.561Z,102235.56
2022-10-19T05:36:16.761Z,102234.81
2022-10-19T05:38:45.098Z,102225.25
2022-10-19T05:41:14.836Z,102233.19
2022-10-19T05:43:43.505Z,102220.16
2022-10-19T05:46:12.698Z,102228.09
2022-10-19T05:48:41.331Z,102231.56
2022-10-19T05:51:11.574Z,102239.41
2022-10-19T05:53:39.714Z,102235.88
2022-10-19T05:56:09.633Z,102243.66
2022-10-19T05:58:38.765Z,102242.03
2022-10-19T06:01:06.943Z,102242.91
2022-10-19T06:03:34.671Z,102246.53
2022-10-19T06:06:04.380Z,102251.75
2022-10-19T06:08:32.243Z,102243.97
2022-10-19T06:11:07.445Z,102244.84
2022-10-19T06:13:36.009Z,102243.06
2022-10-19T06:16:05.955Z,102246.53
2022-10-19T06:18:33.706Z,102243.81
2022-10-19T06:21:04.028Z,102247.41
2022-10-19T06:23:32.022Z,102246.44
2022-10-19T06:26:00.497Z,102255.16
2022-10-19T06:28:28.236Z,102262.09
2022-10-19T06:30:55.957Z,102251.59
2022-10-19T06:33:25.069Z,102260.31
2022-10-19T06:35:52.704Z,102260.16
2022-10-19T06:38:20.577Z,102254.84
2022-10-19T06:40:49.137Z,102257.38
2022-10-19T06:43:17.175Z,102255.50
2022-10-19T06:45:44.830Z,102260.69
2022-10-19T06:48:12.585Z,102256.97
2022-10-19T06:50:41.581Z,102263.75
2022-10-19T06:53:09.305Z,102267.16
2022-10-19T06:55:37.710Z,102271.44
2022-10-19T06:58:05.412Z,102273.06
2022-10-19T07:00:33.149Z,102273.75
2022-10-19T07:03:01.080Z,102278.91
2022-10-19T07:05:28.608Z,102269.25
2022-10-19T07:07:58.253Z,102279.66
2022-10-19T07:10:26.035Z,102271.81
2022-10-19T07:12:53.617Z,102282.97
2022-10-19T07:15:21.131Z,102281.13
2022-10-19T07:17:48.631Z,102276.66
2022-10-19T07:20:16.213Z,102288.72
2022-10-19T07:22:43.837Z,102294.75
2022-10-19T07:25:12.644Z,102298.91
2022-10-19T07:27:40.624Z,102300.38
2022-10-19T07:30:09.814Z,102306.13
2022-10-19T07:32:37.635Z,102300.69
2022-10-19T07:35:14.981Z,102301.38
2022-10-19T07:37:43.493Z,102316.84
2022-10-19T07:40:33.217Z,102311.31
2022-10-19T07:43:01.554Z,102309.03
2022-10-19T07:45:44.203Z,102312.16
2022-10-19T07:51:16.992Z,102310.78
2022-10-19T07:53:54.370Z,102307.81
2022-10-19T07:56:31.339Z,102311.03
2022-10-19T07:59:10.455Z,102313.31
2022-10-19T08:01:45.524Z,102317.38
2022-10-19T08:04:59.072Z,102331.00
2022-10-19T08:09:53.989Z,102326.16
2022-10-19T08:12:27.076Z,102327.75
2022-10-19T08:14:56.884Z,102329.56
2022-10-19T08:17:26.642Z,102326.75
2022-10-19T08:19:55.414Z,102334.34
2022-10-19T08:22:26.471Z,102332.41
2022-10-19T08:24:55.618Z,102322.00
2022-10-19T08:27:25.972Z,102330.72
2022-10-19T08:29:56.257Z,102335.38
2022-10-19T08:32:26.667Z,102332.69
2022-10-19T08:34:57.280Z,102336.13
2022-10-19T08:40:22.654Z,102339.34
2022-10-19T08:46:21.039Z,102345.56
2022-10-19T08:48:52.628Z,102347.22
2022-10-19T08:51:23.198Z,102343.94
2022-10-19T08:54:01.461Z,102352.81
2022-10-19T08:56:50.539Z,102353.13
2022-10-19T08:59:34.164Z,102351.66
2022-10-19T09:02:14.057Z,102345.00
2022-10-19T09:04:45.512Z,102344.41
2022-10-19T09:07:28.286Z,102338.28
2022-10-19T09:10:00.650Z,102351.91
2022-10-19T09:12:43.744Z,102359.72
2022-10-19T09:15:17.100Z,102356.91
2022-10-19T09:17:46.794Z,102352.16
2022-10-19T09:20:18.711Z,102358.00
2022-10-19T09:22:48.156Z,102360.94
2022-10-19T09:25:22.377Z,102368.22
2022-10-19T09:30:40.209Z,102365.03
2022-10-19T09:33:22.457Z,102376.81
2022-10-19T09:35:52.603Z,102362.44
2022-10-19T09:38:28.053Z,102367.44
2022-10-19T09:40:58.308Z,102364.81
2022-10-19T09:43:34.611Z,102376.09
2022-10-19T09:49:13.610Z,102377.63
2022-10-19T09:51:51.092Z,102376.50
2022-10-19T09:54:29.115Z,102377.06
2022-10-19T09:57:00.678Z,102379.91
2022-10-19T09:59:32.328Z,102381.31
2022-10-19T10:02:06.578Z,102380.78
2022-10-19T10:07:44.432Z,102393.97
2022-10-19T10:10:25.531Z,102383.34
2022-10-19T10:12:59.218Z,102395.06
2022-10-19T10:15:31.001Z,102378.84
2022-10-19T10:18:10.227Z,102384.56
2022-10-19T10:20:59.669Z,102380.22
2022-10-19T10:23:31.646Z,102386.66
2022-10-19T10:26:02.095Z,102387.59
2022-10-19T10:28:32.312Z,102381.88
2022-10-19T10:31:05.119Z,102388.63
2022-10-19T10:33:44.737Z,102388.41
2022-10-19T10:36:16.891Z,102377.16
2022-10-19T10:38:56.379Z,102373.16
2022-10-19T10:41:30.215Z,102386.66
2022-10-19T10:44:04.752Z,102385.13
2022-10-19T10:46:35.898Z,102381.66
2022-10-19T10:49:07.330Z,102378.28
2022-10-19T10:51:45.653Z,102379.09
2022-10-19T10:57:14.168Z,102386.16
2022-10-19T11:00:16.262Z,102380.03
2022-10-19T11:02:53.889Z,102384.38
2022-10-19T11:22:00.097Z,102386.50
2022-10-19T11:24:43.868Z,102383.78
2022-10-19T11:27:38.276Z,102394.03
2022-10-19T11:30:17.700Z,102386.88
2022-10-19T11:33:02.566Z,102385.19
2022-10-19T11:35:55.131Z,102370.38
2022-10-19T11:38:43.155Z,102374.06
2022-10-19T11:41:19.545Z,102365.03
2022-10-19T11:46:59.985Z,102364.19
2022-10-19T11:49:43.256Z,102364.06
2022-10-19T11:52:21.784Z,102360.06
2022-10-19T11:55:21.141Z,102372.25
2022-10-19T11:58:15.981Z,102358.03
2022-10-19T12:01:03.494Z,102361.13
2022-10-19T12:04:09.572Z,102370.22
2022-10-19T12:06:48.584Z,102360.59
2022-10-19T12:09:36.992Z,102363.94
2022-10-19T12:12:23.642Z,102364.19
2022-10-19T12:15:03.682Z,102366.03
2022-10-19T12:17:37.966Z,102369.25
2022-10-19T12:20:14.878Z,102370.88
2022-10-19T12:22:48.590Z,102364.91
2022-10-19T12:25:20.651Z,102356.06
2022-10-19T12:27:50.863Z,102357.13
2022-10-19T12:30:24.664Z,102354.97
2022-10-19T12:33:10.162Z,102354.53
2022-10-19T12:36:03.465Z,102353.38
2022-10-19T12:38:46.122Z,102358.63
2022-10-19T12:41:27.749Z,102356.28
2022-10-19T12:44:09.397Z,102353.47
2022-10-19T12:46:49.630Z,102353.53
2022-10-19T12:49:47.767Z,102350.31
2022-10-19T12:52:19.918Z,102344.66
2022-10-19T12:54:47.944Z,102348.06
2022-10-19T12:57:31.623Z,102342.56
2022-10-19T13:00:04.131Z,102338.09
2022-10-19T13:02:40.366Z,102336.03
2022-10-19T13:05:10.551Z,102344.69
2022-10-19T13:07:39.342Z,102344.06
2022-10-19T13:10:33.460Z,102336.28
2022-10-19T13:13:05.250Z,102332.84
2022-10-19T13:15:58.917Z,102334.28
2022-10-19T13:19:11.323Z,102323.63
2022-10-19T13:22:34.744Z,102337.25
2022-10-19T13:25:35.502Z,102328.50
2022-10-19T13:28:41.488Z,102318.75
2022-10-19T13:31:26.042Z,102312.75
2022-10-19T13:33:56.905Z,102310.22
2022-10-19T13:36:26.675Z,102314.59
2022-10-19T13:39:10.827Z,102310.72
2022-10-19T13:41:54.548Z,102321.31
2022-10-19T13:44:29.424Z,102313.91
2022-10-19T13:47:24.153Z,102308.78
2022-10-19T13:50:04.774Z,102306.03
2022-10-19T13:52:57.889Z,102299.94
2022-10-19T13:56:02.217Z,102304.53
2022-10-19T13:59:01.892Z,102300.59
2022-10-19T14:01:47.097Z,102300.13
2022-10-19T14:04:32.734Z,102302.78
2022-10-19T14:07:08.170Z,102302.38
2022-10-19T14:10:00.350Z,102291.09
2022-10-19T14:12:34.305Z,102296.47
2022-10-19T14:15:02.388Z,102294.56
2022-10-19T14:17:34.837Z,102293.34
2022-10-19T14:20:04.264Z,102295.72
2022-10-19T14:22:37.079Z,102295.47
2022-10-19T14:25:08.680Z,102288.16
2022-10-19T14:27:40.679Z,102287.88
2022-10-19T14:30:23.655Z,102285.91
2022-10-19T14:32:56.797Z,102290.09
2022-10-19T14:35:39.976Z,102295.81
2022-10-19T14:38:09.857Z,102298.19
2022-10-19T14:40:41.485Z,102294.09
2022-10-19T14:46:12.188Z,102284.63
2022-10-19T14:48:42.033Z,102287.75
2022-10-19T14:51:20.232Z,102283.13
2022-10-19T14:53:52.451Z,102283.56
2022-10-19T14:56:27.194Z,102278.50
2022-10-19T14:59:00.299Z,102282.13
2022-10-19T15:01:31.984Z,102279.59
2022-10-19T15:04:01.160Z,102271.88
2022-10-19T15:06:35.861Z,102268.63
2022-10-19T15:09:12.067Z,102275.28
2022-10-19T15:11:50.500Z,102279.22
2022-10-19T15:14:25.187Z,102286.00
2022-10-19T15:16:58.256Z,102272.50
2022-10-19T15:19:31.066Z,102276.47
2022-10-19T15:22:16.385Z,102275.34
2022-10-19T15:24:59.109Z,102266.28
2022-10-19T15:27:38.896Z,102271.03
2022-10-19T15:30:25.503Z,102268.09
2022-10-19T15:33:12.975Z,102275.69
2022-10-19T15:35:46.331Z,102282.09
2022-10-19T15:38:24.017Z,102278.94
2022-10-19T15:40:58.996Z,102280.94
2022-10-19T15:43:38.853Z,102279.69
2022-10-19T15:46:12.463Z,102286.00
2022-10-19T15:48:53.839Z,102275.88
2022-10-19T15:51:57.920Z,102281.44
2022-10-19T15:57:46.833Z,102288.28
2022-10-19T16:03:17.056Z,102299.47
2022-10-19T16:06:02.249Z,102297.31
2022-10-19T16:14:02.366Z,102307.78
2022-10-19T16:16:35.824Z,102298.50
2022-10-19T16:19:20.280Z,102303.22
2022-10-19T16:22:05.745Z,102307.06
2022-10-19T16:24:34.814Z,102302.97
2022-10-19T16:29:54.375Z,102306.19
2022-10-19T16:32:23.578Z,102309.00
2022-10-19T16:34:53.784Z,102308.44
2022-10-19T16:37:29.357Z,102309.69
2022-10-19T16:40:12.940Z,102303.88
2022-10-19T16:42:41.658Z,102313.72
2022-10-19T16:45:25.876Z,102310.56
2022-10-19T16:47:55.512Z,102317.78
2022-10-19T16:50:23.566Z,102313.88
2022-10-19T16:53:06.991Z,102318.66
2022-10-19T16:55:38.059Z,102317.16
2022-10-19T16:58:06.988Z,102321.00
2022-10-19T17:00:35.587Z,102327.56
2022-10-19T17:03:05.282Z,102327.97
2022-10-19T17:05:52.459Z,102330.22
2022-10-19T17:08:23.907Z,102330.63
2022-10-19T17:10:53.805Z,102332.69
2022-10-19T17:13:21.291Z,102333.06
2022-10-19T17:15:48.782Z,102336.91
2022-10-19T17:18:16.277Z,102343.44
2022-10-19T17:20:43.716Z,102340.22
2022-10-19T17:23:11.198Z,102342.38
2022-10-19T17:25:47.483Z,102345.47
2022-10-19T17:28:14.910Z,102348.44
2022-10-19T17:30:42.631Z,102350.41
2022-10-19T17:33:10.051Z,102346.31
2022-10-19T17:35:37.526Z,102349.28
2022-10-19T17:38:05.001Z,102354.06
2022-10-19T17:40:33.501Z,102353.56
2022-10-19T17:43:02.326Z,102349.50
2022-10-19T17:45:29.807Z,102355.94
2022-10-19T17:47:57.625Z,102355.41
2022-10-19T17:50:25.042Z,102354.00
2022-10-19T17:52:52.505Z,102346.38
2022-10-19T17:55:20.033Z,102352.06
2022-10-19T17:57:47.511Z,102361.09
2022-10-19T18:00:16.679Z,102357.88
2022-10-19T18:02:45.633Z,102359.03
2022-10-19T18:05:13.327Z,102361.03
2022-10-19T18:07:40.863Z,102357.88
2022-10-19T18:10:08.976Z,102355.63
2022-10-19T18:12:36.428Z,102354.22
2022-10-19T18:15:04.189Z,102358.88
2022-10-19T18:17:32.970Z,102359.19
2022-10-19T18:20:00.406Z,102353.34
2022-10-19T18:22:27.885Z,102361.47
2022-10-19T18:24:55.400Z,102358.19
2022-10-19T18:27:22.950Z,102349.72
2022-10-19T18:29:50.402Z,102356.06
2022-10-19T18:32:18.091Z,102355.38
2022-10-19T18:34:47.000Z,102355.69
2022-10-19T18:37:14.462Z,102356.75
2022-10-19T18:39:41.877Z,102357.84
2022-10-19T18:42:12.028Z,102357.25
2022-10-19T18:44:39.558Z,102364.41
2022-10-19T18:47:07.035Z,102364.63
2022-10-19T18:49:34.800Z,102363.00
2022-10-19T18:52:03.592Z,102372.88
2022-10-19T18:54:31.034Z,102369.56
2022-10-19T18:56:58.586Z,102371.47
2022-10-19T18:59:29.014Z,102365.44
2022-10-19T19:01:56.512Z,102363.84
2022-10-19T19:04:23.995Z,102369.22
2022-10-19T19:06:51.638Z,102358.22
2022-10-19T19:09:21.179Z,102366.19
2022-10-19T19:11:48.735Z,102360.19
2022-10-19T19:14:20.851Z,102367.38
2022-10-19T19:16:48.657Z,102365.78
2022-10-19T19:19:18.506Z,102364.22
2022-10-19T19:21:47.361Z,102367.91
2022-10-19T19:24:17.638Z,102357.75
2022-10-19T19:26:50.107Z,102351.78
2022-10-19T19:29:18.784Z,102367.72
2022-10-19T19:31:47.184Z,102354.84
2022-10-19T19:34:15.096Z,102360.28
2022-10-19T19:36:47.499Z,102364.81
2022-10-19T19:39:16.870Z,102366.81
2022-10-19T19:41:46.198Z,102367.78
2022-10-19T19:44:14.049Z,102368.78
2022-10-19T19:46:41.661Z,102363.69
2022-10-19T19:49:09.123Z,102359.59
2022-10-19T19:51:37.209Z,102372.88
2022-10-19T19:54:05.623Z,102367.69
2022-10-19T19:56:33.527Z,102359.09
2022-10-19T19:59:04.410Z,102364.38
2022-10-19T20:01:32.986Z,102360.22
2022-10-19T20:06:37.534Z,102355.38
2022-10-19T20:09:06.301Z,102362.53
2022-10-19T20:11:41.855Z,102358.50
2022-10-19T20:14:11.644Z,102358.84
2022-10-19T20:16:39.239Z,102359.09
2022-10-19T20:19:08.363Z,102360.94
2022-10-19T20:21:36.333Z,102362.78
2022-10-19T20:24:04.655Z,102374.19
2022-10-19T20:26:32.725Z,102369.22
2022-10-19T20:29:02.252Z,102360.78
2022-10-19T20:31:31.857Z,102368.00
2022-10-19T20:33:59.421Z,102359.38
2022-10-19T20:36:27.606Z,102370.00
2022-10-19T20:38:57.312Z,102380.66
2022-10-19T20:41:27.239Z,102383.41
2022-10-19T20:43:55.913Z,102383.41
2022-10-19T20:46:24.997Z,102376.53
2022-10-19T20:48:54.733Z,102373.16
2022-10-19T20:51:27.460Z,102387.25
2022-10-19T20:53:59.462Z,102392.53
2022-10-19T20:56:28.963Z,102396.06
2022-10-19T20:58:57.182Z,102388.22
2022-10-19T21:01:25.411Z,102380.53
2022-10-19T21:03:55.934Z,102396.31
2022-10-19T21:06:24.990Z,102394.63
2022-10-19T21:08:53.327Z,102398.22
2022-10-19T21:11:22.630Z,102390.53
2022-10-19T21:13:54.361Z,102388.94
2022-10-19T21:16:23.305Z,102394.25
2022-10-19T21:18:51.558Z,102400.47
2022-10-19T21:21:24.872Z,102396.25
2022-10-19T21:23:57.291Z,102388.59
2022-10-19T21:26:26.111Z,102389.50
2022-10-19T21:28:54.059Z,102393.09
2022-10-19T21:31:23.017Z,102390.72
2022-10-19T21:33:50.826Z,102391.78
2022-10-19T21:36:21.114Z,102385.91
2022-10-19T21:38:49.236Z,102392.16
2022-10-19T21:41:20.898Z,102381.00
2022-10-19T21:43:51.533Z,102384.63
2022-10-19T21:46:20.835Z,102378.69
2022-10-19T21:48:48.969Z,102372.72
2022-10-19T21:51:23.610Z,102372.13
2022-10-19T21:53:51.147Z,102366.03
2022-10-19T21:56:18.718Z,102366.94
2022-10-19T21:58:46.961Z,102374.88
2022-10-19T22:01:15.348Z,102370.56
2022-10-19T22:03:42.968Z,102367.13
2022-10-19T22:06:10.587Z,102363.69
2022-10-19T22:08:40.665Z,102363.72
2022-10-19T22:11:10.382Z,102361.97
2022-10-19T22:13:38.434Z,102349.97
2022-10-19T22:16:06.552Z,102355.19
2022-10-19T22:18:34.228Z,102350.03
2022-10-19T22:21:04.077Z,102351.75
2022-10-19T22:23:31.659Z,102351.81
2022-10-19T22:26:00.451Z,102348.41
2022-10-19T22:28:28.624Z,102349.44
2022-10-19T22:30:57.129Z,102342.63
2022-10-19T22:33:25.428Z,102347.91
2022-10-19T22:35:57.755Z,102337.59
2022-10-19T22:38:25.670Z,102340.13
2022-10-19T22:40:53.244Z,102336.75
2022-10-19T22:43:22.359Z,102346.41
2022-10-19T22:45:50.250Z,102345.66
2022-10-19T22:48:18.894Z,102341.50
2022-10-19T22:50:47.030Z,102339.81
2022-10-19T22:53:14.696Z,102344.28
2022-10-19T22:55:42.351Z,102325.34
2022-10-19T23:00:44.123Z,102330.72
2022-10-19T23:03:12.112Z,102334.38
2022-10-19T23:05:39.757Z,102322.38
2022-10-19T23:08:07.411Z,102330.34
2022-10-19T23:10:35.072Z,102322.75
2022-10-19T23:13:02.670Z,102314.13
2022-10-19T23:15:30.294Z,102318.53
2022-10-19T23:18:00.111Z,102320.28
2022-10-19T23:20:27.735Z,102309.81
2022-10-19T23:22:57.916Z,102302.84
2022-10-19T23:25:25.554Z,102308.09
2022-10-19T23:27:53.422Z,102314.25
2022-10-19T23:30:21.076Z,102311.75
2022-10-19T23:32:48.904Z,102321.41
2022-10-19T23:35:17.941Z,102315.47
2022-10-19T23:37:45.556Z,102309.50
2022-10-19T23:40:13.335Z,102321.69
2022-10-19T23:42:40.829Z,102322.63
2022-10-19T23:45:09.130Z,102322.75
2022-10-19T23:47:36.958Z,102334.97
2022-10-19T23:50:04.897Z,102329.81
2022-10-19T23:52:33.639Z,102335.13
2022-10-19T23:55:01.415Z,102328.28
2022-10-19T23:57:28.902Z,102322.31
2022-10-19T23:59:56.339Z,102328.47
